Impacts TAF Board
For situational awareness. Not to be used for flight planning purposes.
IDs:

KBVO - Bartlesville Muni, OK, US

Issued at 1721 UTC 21 May 2022
Updated at 2233 UTC 21 May 2022
Potential Impact None Slight Moderate High
Time2153Z 21/23Z 22/00Z 22/01Z 22/02Z 22/03Z 22/04Z 22/05Z 22/06Z 22/07Z 22/08Z 22/09Z 22/10Z 22/11Z>>
Type OBS PRVL PRVL PRVL PRVL PRVL PRVL PRVL PRVL PRVL PRVL PRVL PRVL PRVL
VIS 10 >6 >6 >6 >6 >6 >6 >6 >6 >6 >6 >6 >6 >6
CIG 55 40 40 40 250 250 250 250 250 250 250 250 250 250
Cover OVC BKN BKN BKN BKN BKN BKN BKN BKN BKN BKN BKN BKN BKN
FltCat VFR VFR VFR VFR VFR VFR VFR VFR VFR VFR VFR VFR VFR VFR
WX -- VCSH VCSH VCSH -- -- -- -- -- -- -- -- -- --
WDir 10 20 20 20 30 30 30 30 30 30 30 30 30 30
WSpd 14 14 14 14 5 5 5 5 5 5 5 5 5 5
WGst 21 22 22 22 -- -- -- -- -- -- -- -- -- --
WSHgt -- -- -- -- -- -- -- -- -- -- -- -- -- --
WSDir -- -- -- -- -- -- -- -- -- -- -- -- -- --
WSSpd -- -- -- -- -- -- -- -- -- -- -- -- -- --
R17/35
XWnd 3 5 5 5 3 3 3 3 3 3 3 3 3 3
XGst 4 8 8 8 -- -- -- -- -- -- -- -- -- --
HWnd -14 -13 -13 -13 -4 -4 -4 -4 -4 -4 -4 -4 -4 -4
HGst -21 -21 -21 -21 -- -- -- -- -- -- -- -- -- --
Raw TAF
KBVO 211721Z 2118/2218 02014G22KT P6SM VCSH BKN040
  FM220200 03005KT P6SM BKN250


Raw METAR
KBVO 212153Z AUTO 01014G21KT 10SM OVC055 18/09 A3009 RMK AO2 SLP184 T01780094
KBVO 212053Z AUTO 01012G21KT 10SM OVC050 18/10 A3008 RMK AO2 SLP180 T01780100 50003
KBVO 211953Z AUTO 01013G21KT 10SM OVC045 16/10 A3008 RMK AO2 SLP181 T01610100

METAR Board
Radar Display
Forecast Discussion
For situational awareness. Not to be used for flight planning purposes.